Gaschem Juemme — ELSV2 — position and weather

sailwx.info

Track history (hours):
 
Tides and Currents Weather Stations Pressure Air Temp Water Temp Dewpoint Dewpoint Depression Visibility Wind Speed Wind Dir Waves Ship Positions

Gaschem Juemme

Last reported at 2017-Oct-24 07:20 UTC. Time now 2017-Nov-22 14:52 UTC.
Position N 36°11' E 014°37'.
Warning: this ship's position is 29 days out of date.

Length 113.2 m; beam 15.9 m; draft 7 m.

Type: Ship. MMSI: 636090169.

Date/timePositionNaut miles runAvg speedWind from/ knotsBaromVisibWave heightAir tempDewpointWater temp
2017-Oct-24 07:20N 36°11' E 014°37'413.0
2017-Oct-24 07:00N 36°12' E 014°32'612.9
2017-Oct-24 06:31N 36°14' E 014°25'712.8
2017-Oct-24 06:00N 36°17' E 014°17'612.8
2017-Oct-24 05:30N 36°19' E 014°10'61312.2
2017-Oct-22 03:03N 36°48' E 001°27'113.4
2017-Oct-22 02:57N 36°48' E 001°26'613.4
2017-Oct-22 02:30N 36°47' E 001°18'713.5
2017-Oct-22 02:00N 36°45' E 001°10'713.2
2017-Oct-22 01:30N 36°44' E 001°02'3712.6
2017-Oct-21 22:32N 36°37' E 000°16'113.0
2017-Oct-21 22:29N 36°37' E 000°16'1213.1
2017-Oct-21 21:32N 36°34' E 000°01'113.1
2017-Oct-21 21:30N 36°34' W 000°00'713.0
2017-Oct-21 20:59N 36°32' W 000°08'1513.1
2017-Oct-21 19:51N 36°30' W 000°26'412.8
2017-Oct-21 19:30N 36°29' W 000°32'612.4
2017-Oct-21 19:00N 36°27' W 000°39'612.2
2017-Oct-21 18:30N 36°26' W 000°47'1212.5
2017-Oct-21 17:32N 36°24' W 001°01'112.4
2017-Oct-21 17:26N 36°24' W 001°03'  
2017-Oct-17 05:32N 49°51' W 003°25'0 9.7
2017-Oct-17 05:30N 49°52' W 003°25'5 9.4
2017-Oct-17 04:56N 49°54' W 003°18'4 9.1
2017-Oct-17 04:30N 49°56' W 003°13'5 8.9
2017-Oct-17 03:55N 49°58' W 003°05'4 9.1
2017-Oct-17 03:30N 49°60' W 002°60'10510.4
2017-Oct-16 17:24N 50°28' W 000°22'410.0
2017-Oct-16 16:58N 50°29' W 000°16'510.4
2017-Oct-16 16:30N 50°30' W 000°08'611.0
2017-Oct-16 16:00N 50°32' W 000°00'611.7
2017-Oct-16 15:30N 50°34' E 000°09'612.1
2017-Oct-16 15:00N 50°35' E 000°18'612.6
2017-Oct-16 14:30N 50°37' E 000°27'1312.6
2017-Oct-16 13:30N 50°43' E 000°45'612.7
2017-Oct-16 13:00N 50°47' E 000°53'612.3
2017-Oct-16 12:30N 50°51' E 001°01'2011.2
2017-Oct-16 10:42N 51°03' E 001°26'410.8
2017-Oct-16 10:21N 51°06' E 001°30'410.7
2017-Oct-16 10:00N 51°08' E 001°35'510.8
2017-Oct-16 09:30N 51°11' E 001°42'510.9
2017-Oct-16 09:00N 51°16' E 001°47'611.7
2017-Oct-16 08:30N 51°21' E 001°52'611.7
2017-Oct-16 08:00N 51°25' E 001°58'612.3
2017-Oct-16 07:30N 51°23' E 002°08'612.7
2017-Oct-16 07:00N 51°21' E 002°17'713.5
2017-Oct-16 06:28N 51°23' E 002°28'713.2
2017-Oct-16 05:59N 51°23' E 002°39'510.7
2017-Oct-16 05:29N 51°22' E 002°47'713.1
2017-Oct-16 04:57N 51°23' E 002°58'512.2
2017-Oct-16 04:30N 51°24' E 003°07'713.3
2017-Oct-16 03:57N 51°25' E 003°19'613.4
2017-Oct-16 03:30N 51°25' E 003°28'713.7
2017-Oct-16 02:59N 51°27' E 003°40'  
Track history (hours):
 
Tides and Currents Weather Stations Pressure Air Temp Water Temp Dewpoint Dewpoint Depression Visibility Wind Speed Wind Dir Waves Ship Positions

Gaschem Juemme

Last reported at 2017-Oct-24 07:20 UTC. Time now 2017-Nov-22 14:52 UTC.
Position N 36°11' E 014°37'.
Warning: this ship's position is 29 days out of date.

Length 113.2 m; beam 15.9 m; draft 7 m.

Type: Ship. MMSI: 636090169.

Date/timePositionNaut miles runAvg speedWind from/ knotsBaromVisibWave heightAir tempDewpointWater temp
2017-Oct-24 07:20N 36°11' E 014°37'413.0
2017-Oct-24 07:00N 36°12' E 014°32'612.9
2017-Oct-24 06:31N 36°14' E 014°25'712.8
2017-Oct-24 06:00N 36°17' E 014°17'612.8
2017-Oct-24 05:30N 36°19' E 014°10'61312.2
2017-Oct-22 03:03N 36°48' E 001°27'113.4
2017-Oct-22 02:57N 36°48' E 001°26'613.4
2017-Oct-22 02:30N 36°47' E 001°18'713.5
2017-Oct-22 02:00N 36°45' E 001°10'713.2
2017-Oct-22 01:30N 36°44' E 001°02'3712.6
2017-Oct-21 22:32N 36°37' E 000°16'113.0
2017-Oct-21 22:29N 36°37' E 000°16'1213.1
2017-Oct-21 21:32N 36°34' E 000°01'113.1
2017-Oct-21 21:30N 36°34' W 000°00'713.0
2017-Oct-21 20:59N 36°32' W 000°08'1513.1
2017-Oct-21 19:51N 36°30' W 000°26'412.8
2017-Oct-21 19:30N 36°29' W 000°32'612.4
2017-Oct-21 19:00N 36°27' W 000°39'612.2
2017-Oct-21 18:30N 36°26' W 000°47'1212.5
2017-Oct-21 17:32N 36°24' W 001°01'112.4
2017-Oct-21 17:26N 36°24' W 001°03'  
2017-Oct-17 05:32N 49°51' W 003°25'0 9.7
2017-Oct-17 05:30N 49°52' W 003°25'5 9.4
2017-Oct-17 04:56N 49°54' W 003°18'4 9.1
2017-Oct-17 04:30N 49°56' W 003°13'5 8.9
2017-Oct-17 03:55N 49°58' W 003°05'4 9.1
2017-Oct-17 03:30N 49°60' W 002°60'10510.4
2017-Oct-16 17:24N 50°28' W 000°22'410.0
2017-Oct-16 16:58N 50°29' W 000°16'510.4
2017-Oct-16 16:30N 50°30' W 000°08'611.0
2017-Oct-16 16:00N 50°32' W 000°00'611.7
2017-Oct-16 15:30N 50°34' E 000°09'612.1
2017-Oct-16 15:00N 50°35' E 000°18'612.6
2017-Oct-16 14:30N 50°37' E 000°27'1312.6
2017-Oct-16 13:30N 50°43' E 000°45'612.7
2017-Oct-16 13:00N 50°47' E 000°53'612.3
2017-Oct-16 12:30N 50°51' E 001°01'2011.2
2017-Oct-16 10:42N 51°03' E 001°26'410.8
2017-Oct-16 10:21N 51°06' E 001°30'410.7
2017-Oct-16 10:00N 51°08' E 001°35'510.8
2017-Oct-16 09:30N 51°11' E 001°42'510.9
2017-Oct-16 09:00N 51°16' E 001°47'611.7
2017-Oct-16 08:30N 51°21' E 001°52'611.7
2017-Oct-16 08:00N 51°25' E 001°58'612.3
2017-Oct-16 07:30N 51°23' E 002°08'612.7
2017-Oct-16 07:00N 51°21' E 002°17'713.5
2017-Oct-16 06:28N 51°23' E 002°28'713.2
2017-Oct-16 05:59N 51°23' E 002°39'510.7
2017-Oct-16 05:29N 51°22' E 002°47'713.1
2017-Oct-16 04:57N 51°23' E 002°58'512.2
2017-Oct-16 04:30N 51°24' E 003°07'713.3
2017-Oct-16 03:57N 51°25' E 003°19'613.4
2017-Oct-16 03:30N 51°25' E 003°28'713.7
2017-Oct-16 02:59N 51°27' E 003°40'  

Dump ship's entire track history